Time;durP1;ratioP1;P1;durP2;ratioP2;P2;SDS_P1;SDS_P2;PMS_P1;PMS_P2;Temp;Humidity;BMP_temperature;BMP_pressure;BME280_temperature;BME280_humidity;BME280_pressure;Samples;Min_cycle;Max_cycle;Signal;HPM_P1;HPM_P2
2022/11/26 00:02:30;;;;;;;12.52;5.88;;;7.20;81.60;;;;;;4996619;28;20577;-77
2022/11/26 00:04:57;;;;;;;11.55;5.82;;;7.30;82.10;;;;;;4995824;28;20050;-77
2022/11/26 00:07:28;;;;;;;10.77;5.45;;;7.20;81.60;;;;;;4979243;28;20049;-77
2022/11/26 00:09:56;;;;;;;9.68;4.75;;;7.20;81.60;;;;;;4980695;28;20037;-77
2022/11/26 00:12:28;;;;;;;11.40;5.70;;;7.20;81.60;;;;;;4997869;28;20052;-77
2022/11/26 00:14:54;;;;;;;11.68;4.45;;;7.20;81.60;;;;;;4993157;28;20408;-77
2022/11/26 00:17:20;;;;;;;11.13;4.40;;;7.20;81.60;;;;;;5009233;28;20054;-77
2022/11/26 00:19:46;;;;;;;12.23;5.55;;;7.20;81.50;;;;;;5013984;28;20107;-77
2022/11/26 00:22:28;;;;;;;10.82;5.28;;;7.20;81.50;;;;;;5004980;28;20124;-77
2022/11/26 00:24:54;;;;;;;8.75;5.82;;;7.10;81.50;;;;;;5007593;28;20042;-77
2022/11/26 00:27:23;;;;;;;11.10;5.15;;;7.20;81.50;;;;;;5004981;28;20034;-77
2022/11/26 00:29:49;;;;;;;12.00;4.55;;;7.10;81.50;;;;;;4986462;28;20473;-77
2022/11/26 00:32:20;;;;;;;12.65;5.07;;;7.20;81.50;;;;;;4998944;28;20040;-77
2022/11/26 00:34:46;;;;;;;12.90;5.00;;;7.10;81.50;;;;;;4990832;28;20061;-78
2022/11/26 00:37:43;;;;;;;10.65;5.35;;;7.10;81.50;;;;;;4985636;28;20045;-78
2022/11/26 00:40:24;;;;;;;10.13;4.68;;;7.10;81.50;;;;;;4978394;28;20050;-78
2022/11/26 00:42:50;;;;;;;10.48;5.47;;;7.10;81.60;;;;;;4997534;28;20050;-78
2022/11/26 00:45:25;;;;;;;10.68;4.20;;;7.10;81.60;;;;;;4997217;28;20049;-78
2022/11/26 00:47:52;;;;;;;11.73;5.07;;;7.00;81.60;;;;;;4981405;28;20042;-78
2022/11/26 00:50:23;;;;;;;10.32;5.10;;;7.10;81.60;;;;;;4989304;28;20087;-78
2022/11/26 00:52:53;;;;;;;11.80;5.20;;;7.10;81.60;;;;;;5000169;28;20087;-78
2022/11/26 00:55:29;;;;;;;11.13;5.00;;;7.10;81.60;;;;;;5016824;28;20041;-78
2022/11/26 00:57:55;;;;;;;10.00;4.65;;;7.10;81.60;;;;;;4995041;28;20033;-78
2022/11/26 01:00:24;;;;;;;9.52;4.60;;;7.00;81.50;;;;;;4995014;28;21616;-78
2022/11/26 01:02:50;;;;;;;8.55;4.40;;;7.00;81.50;;;;;;5007883;28;20040;-76
2022/11/26 01:05:16;;;;;;;7.38;4.82;;;7.00;81.50;;;;;;5006212;28;20041;-78
2022/11/26 01:07:43;;;;;;;9.75;4.45;;;7.00;81.60;;;;;;4996705;28;20408;-78
2022/11/26 01:10:31;;;;;;;10.52;4.97;;;7.00;82.00;;;;;;5013221;28;20041;-79
2022/11/26 01:12:57;;;;;;;9.98;4.68;;;7.00;81.50;;;;;;4989953;28;20346;-78
2022/11/26 01:15:24;;;;;;;11.02;4.93;;;7.00;81.60;;;;;;5004179;28;20037;-78
2022/11/26 01:17:51;;;;;;;9.68;5.43;;;7.00;81.60;;;;;;5004683;28;20034;-78
2022/11/26 01:20:29;;;;;;;11.02;4.57;;;7.00;81.60;;;;;;4999826;28;20497;-78
2022/11/26 01:22:58;;;;;;;8.10;3.95;;;7.00;81.60;;;;;;5002960;28;20033;-78
2022/11/26 01:25:25;;;;;;;9.82;4.72;;;7.00;81.70;;;;;;4979201;28;20030;-78
2022/11/26 01:27:51;;;;;;;9.93;5.13;;;6.90;81.60;;;;;;4989102;28;20050;-78
2022/11/26 01:30:23;;;;;;;11.20;5.13;;;6.90;81.60;;;;;;5011040;28;20038;-78
2022/11/26 01:32:49;;;;;;;7.47;4.32;;;7.00;81.70;;;;;;4996830;28;20046;-78
2022/11/26 01:35:16;;;;;;;9.85;4.60;;;6.90;81.60;;;;;;4998524;28;20117;-78
2022/11/26 01:37:43;;;;;;;10.10;5.00;;;6.90;81.60;;;;;;5016130;28;20051;-79
2022/11/26 01:40:25;;;;;;;9.13;4.35;;;6.90;81.60;;;;;;4988344;28;20085;-78
2022/11/26 01:43:21;;;;;;;9.85;5.05;;;6.90;81.70;;;;;;5006416;28;20056;-78
2022/11/26 01:45:47;;;;;;;9.73;4.95;;;6.90;81.60;;;;;;4992668;28;20068;-78
2022/11/26 01:48:21;;;;;;;7.25;4.00;;;6.90;81.60;;;;;;4983355;28;20516;-78
2022/11/26 01:51:02;;;;;;;9.90;4.70;;;6.90;81.70;;;;;;4996363;28;20056;-79
2022/11/26 01:53:32;;;;;;;14.20;5.20;;;6.80;81.60;;;;;;4998641;28;20038;-78
2022/11/26 01:56:19;;;;;;;12.40;5.22;;;6.80;81.60;;;;;;5012651;28;20045;-78
2022/11/26 01:58:53;;;;;;;14.70;5.97;;;6.80;81.70;;;;;;4982839;28;20038;-78
2022/11/26 02:01:19;;;;;;;10.38;4.97;;;6.80;81.60;;;;;;5005915;28;20116;-78
2022/11/26 02:04:12;;;;;;;10.82;5.25;;;6.80;81.60;;;;;;5002253;28;20037;-78
2022/11/26 02:06:40;;;;;;;10.88;4.80;;;6.80;81.60;;;;;;5005237;28;20076;-78
2022/11/26 02:09:08;;;;;;;10.15;4.57;;;6.80;81.70;;;;;;4996018;28;20520;-78
2022/11/26 02:11:34;;;;;;;10.63;5.25;;;6.80;81.70;;;;;;5004339;28;20038;-78
2022/11/26 02:14:31;;;;;;;7.53;4.82;;;6.80;81.70;;;;;;5009395;28;20494;-78
2022/11/26 02:17:09;;;;;;;9.27;4.25;;;6.70;81.60;;;;;;5001038;28;20156;-78
2022/11/26 02:19:38;;;;;;;7.90;4.20;;;6.70;81.70;;;;;;5002887;28;20044;-78
2022/11/26 02:22:24;;;;;;;8.95;4.63;;;6.70;81.70;;;;;;5003555;28;20045;-78
2022/11/26 02:24:55;;;;;;;8.07;4.15;;;6.70;81.70;;;;;;5010217;28;20061;-78
2022/11/26 02:27:39;;;;;;;8.35;4.50;;;6.70;81.80;;;;;;5009444;28;20037;-78
2022/11/26 02:30:11;;;;;;;9.00;4.15;;;6.70;81.70;;;;;;5004337;28;20432;-78
2022/11/26 02:33:00;;;;;;;9.25;4.82;;;6.70;81.80;;;;;;4998789;28;20105;-78
2022/11/26 02:35:35;;;;;;;9.65;4.68;;;6.70;81.80;;;;;;5004651;28;20400;-78
2022/11/26 02:38:09;;;;;;;10.00;5.30;;;6.70;81.80;;;;;;5013567;28;20047;-78
2022/11/26 02:40:34;;;;;;;6.35;4.22;;;6.70;81.80;;;;;;4998190;28;20504;-78
2022/11/26 02:43:00;;;;;;;10.57;4.50;;;6.60;81.70;;;;;;4987637;28;20041;-78
2022/11/26 02:45:52;;;;;;;9.52;4.38;;;6.60;81.70;;;;;;5004267;28;20492;-78
2022/11/26 02:48:22;;;;;;;10.10;4.65;;;6.60;81.70;;;;;;4986660;28;20041;-78
2022/11/26 02:51:17;;;;;;;8.75;5.10;;;6.60;81.80;;;;;;5006618;28;20034;-78
2022/11/26 02:53:45;;;;;;;9.82;4.53;;;6.60;81.80;;;;;;5002052;28;20081;-78
2022/11/26 02:56:26;;;;;;;9.00;4.65;;;6.60;81.80;;;;;;5004197;28;20108;-78
2022/11/26 02:58:54;;;;;;;13.05;6.15;;;6.60;81.80;;;;;;4984293;28;20042;-78
2022/11/26 03:02:18;;;;;;;10.88;5.60;;;6.60;81.80;;;;;;4998236;28;20374;-77
2022/11/26 03:04:47;;;;;;;12.38;5.22;;;6.60;81.80;;;;;;4908392;29;20056;-78
2022/11/26 03:07:14;;;;;;;12.52;6.10;;;6.50;81.70;;;;;;4926180;29;20051;-78
2022/11/26 03:09:59;;;;;;;12.38;4.95;;;6.50;81.70;;;;;;4969310;28;20043;-78
2022/11/26 03:12:25;;;;;;;12.82;5.47;;;6.50;81.70;;;;;;5002732;28;20096;-78
2022/11/26 03:14:51;;;;;;;10.77;4.63;;;6.50;81.70;;;;;;4997737;28;20073;-78
2022/11/26 03:17:17;;;;;;;9.80;4.30;;;6.50;81.60;;;;;;5004971;28;20080;-78
2022/11/26 03:19:43;;;;;;;8.68;4.97;;;6.50;81.60;;;;;;5003240;28;20073;-78
2022/11/26 03:22:10;;;;;;;13.00;5.00;;;6.50;81.70;;;;;;5006261;28;20069;-78
2022/11/26 03:24:36;;;;;;;8.07;4.20;;;6.50;81.70;;;;;;4984336;28;20038;-78
2022/11/26 03:27:01;;;;;;;10.98;5.22;;;6.60;81.80;;;;;;4993409;28;20122;-78
2022/11/26 03:29:27;;;;;;;16.05;5.88;;;6.50;81.70;;;;;;4987742;28;20044;-78
2022/11/26 03:31:53;;;;;;;10.70;5.65;;;6.50;81.70;;;;;;4995077;28;20061;-78
2022/11/26 03:34:18;;;;;;;10.25;4.88;;;6.50;81.70;;;;;;4998101;28;20033;-78
2022/11/26 03:36:44;;;;;;;9.77;5.32;;;6.50;81.80;;;;;;4994976;28;20445;-78
2022/11/26 03:39:10;;;;;;;9.52;5.10;;;6.50;81.70;;;;;;5001710;28;20074;-77
2022/11/26 03:41:36;;;;;;;10.18;4.97;;;6.50;81.80;;;;;;5003483;28;20348;-78
2022/11/26 03:44:02;;;;;;;14.57;5.82;;;6.50;81.80;;;;;;5007964;28;20112;-77
2022/11/26 03:46:27;;;;;;;10.02;4.85;;;6.40;81.70;;;;;;4990058;28;20061;-78
2022/11/26 03:48:53;;;;;;;21.10;6.93;;;6.40;81.70;;;;;;5013461;28;20041;-78
2022/11/26 03:51:19;;;;;;;11.30;5.40;;;6.40;81.70;;;;;;4997816;28;20481;-78
2022/11/26 03:53:44;;;;;;;10.45;5.43;;;6.40;81.70;;;;;;4990809;28;20103;-78
2022/11/26 03:56:10;;;;;;;11.60;5.68;;;6.40;82.10;;;;;;5011753;28;20077;-78
2022/11/26 03:58:36;;;;;;;11.52;5.15;;;6.40;81.60;;;;;;5015027;28;20052;-78
2022/11/26 04:01:07;;;;;;;10.05;5.13;;;6.40;81.60;;;;;;4989931;28;20042;-78
2022/11/26 04:03:33;;;;;;;10.82;4.88;;;6.40;81.60;;;;;;5006232;28;20397;-78
2022/11/26 04:05:59;;;;;;;10.82;4.85;;;6.30;81.50;;;;;;5003610;28;20057;-78
2022/11/26 04:08:24;;;;;;;11.85;5.63;;;6.30;81.50;;;;;;5009133;28;20084;-78
2022/11/26 04:10:50;;;;;;;8.55;4.22;;;6.30;81.50;;;;;;5002024;28;20037;-78
2022/11/26 04:13:16;;;;;;;9.18;5.30;;;6.30;81.60;;;;;;5005247;28;20049;-78
2022/11/26 04:15:41;;;;;;;10.00;5.10;;;6.30;81.60;;;;;;4992895;28;20124;-78
2022/11/26 04:18:07;;;;;;;12.07;5.10;;;6.30;81.60;;;;;;4985104;28;20042;-78
2022/11/26 04:20:33;;;;;;;12.27;4.72;;;6.30;81.60;;;;;;5011606;28;20052;-78
2022/11/26 04:22:58;;;;;;;12.13;5.78;;;6.30;81.70;;;;;;4984802;28;20045;-78
2022/11/26 04:25:25;;;;;;;17.25;6.53;;;6.30;81.70;;;;;;4974931;28;20041;-78
2022/11/26 04:27:50;;;;;;;10.10;5.40;;;6.30;81.70;;;;;;5002908;28;20080;-77
2022/11/26 04:30:16;;;;;;;10.82;5.40;;;6.30;81.70;;;;;;5005816;28;20124;-78
2022/11/26 04:32:42;;;;;;;10.73;4.65;;;6.20;81.60;;;;;;5000728;28;20045;-78
2022/11/26 04:35:08;;;;;;;17.15;6.25;;;6.20;81.60;;;;;;5008811;28;20042;-77
2022/11/26 04:37:34;;;;;;;13.77;6.47;;;6.20;81.60;;;;;;4997910;28;20050;-78
2022/11/26 04:40:00;;;;;;;10.05;5.18;;;6.20;81.50;;;;;;4997562;28;20538;-78
2022/11/26 04:42:26;;;;;;;12.55;6.10;;;6.20;81.50;;;;;;5000817;28;20116;-78
2022/11/26 04:44:51;;;;;;;12.20;5.72;;;6.20;81.50;;;;;;4973535;28;20046;-78
2022/11/26 04:47:17;;;;;;;16.58;5.88;;;6.20;81.50;;;;;;4984836;28;20033;-78
2022/11/26 04:49:43;;;;;;;19.60;7.25;;;6.20;81.90;;;;;;5008830;28;20485;-78
2022/11/26 04:52:09;;;;;;;12.10;5.30;;;6.20;81.50;;;;;;4994379;28;20525;-78
2022/11/26 04:54:35;;;;;;;10.23;5.85;;;6.10;81.70;;;;;;5002011;28;20154;-78
2022/11/26 04:57:01;;;;;;;15.85;5.78;;;6.10;81.50;;;;;;5005717;28;20041;-78
2022/11/26 04:59:26;;;;;;;11.45;5.75;;;6.10;81.60;;;;;;5003362;28;20049;-78
2022/11/26 05:01:52;;;;;;;16.38;6.97;;;6.10;81.70;;;;;;5004416;28;20045;-78
2022/11/26 05:04:19;;;;;;;11.75;5.50;;;6.10;81.70;;;;;;4974184;28;20049;-78
2022/11/26 05:06:44;;;;;;;10.13;5.28;;;6.10;81.70;;;;;;5006359;28;20128;-78
2022/11/26 05:09:10;;;;;;;9.65;5.32;;;6.10;81.70;;;;;;5005601;28;20568;-78
2022/11/26 05:11:36;;;;;;;11.15;5.68;;;6.10;81.80;;;;;;4970096;28;20100;-78
2022/11/26 05:14:02;;;;;;;13.50;5.90;;;6.00;81.70;;;;;;5000787;28;20037;-78
2022/11/26 05:16:27;;;;;;;10.75;5.30;;;6.00;81.80;;;;;;5005728;28;20045;-77
2022/11/26 05:18:53;;;;;;;10.43;4.82;;;6.60;82.10;;;;;;5007179;28;20077;-77
2022/11/26 05:21:19;;;;;;;12.43;5.63;;;6.00;81.80;;;;;;4984938;28;20551;-77
2022/11/26 05:23:44;;;;;;;19.60;6.30;;;6.00;81.80;;;;;;5003910;28;20400;-78
2022/11/26 05:26:10;;;;;;;13.63;6.22;;;6.00;81.80;;;;;;4978110;28;20038;-77
2022/11/26 05:28:36;;;;;;;15.30;6.82;;;6.00;81.80;;;;;;4988972;28;20077;-77
2022/11/26 05:31:02;;;;;;;12.93;6.22;;;6.00;81.80;;;;;;5004224;28;20050;-77
2022/11/26 05:33:29;;;;;;;15.80;7.20;;;6.10;81.80;;;;;;5012379;28;20489;-77
2022/11/26 05:35:55;;;;;;;14.55;6.10;;;6.00;82.20;;;;;;4996293;28;20488;-77
2022/11/26 05:38:21;;;;;;;17.77;7.55;;;6.00;81.80;;;;;;5012266;28;20038;-77
2022/11/26 05:40:46;;;;;;;15.00;6.63;;;6.00;81.80;;;;;;5008796;28;20055;-78
2022/11/26 05:43:12;;;;;;;14.88;5.60;;;6.00;81.90;;;;;;5007766;28;20056;-78
2022/11/26 05:45:38;;;;;;;18.80;6.65;;;6.00;81.90;;;;;;5002541;28;20044;-77
2022/11/26 05:48:04;;;;;;;12.38;5.97;;;5.90;81.90;;;;;;5001086;28;20033;-78
2022/11/26 05:50:31;;;;;;;11.57;6.05;;;5.90;81.90;;;;;;5003939;28;20065;-78
2022/11/26 05:52:57;;;;;;;10.70;6.65;;;5.90;82.00;;;;;;4989243;28;20045;-78
2022/11/26 05:55:23;;;;;;;18.60;7.88;;;6.00;82.10;;;;;;4971308;28;20064;-77
2022/11/26 05:57:49;;;;;;;11.13;6.18;;;5.90;82.00;;;;;;5005038;28;20404;-77
2022/11/26 06:00:15;;;;;;;13.82;5.78;;;5.90;82.00;;;;;;5003320;28;20049;-77
2022/11/26 06:02:41;;;;;;;18.40;7.07;;;5.90;82.10;;;;;;5000543;28;20037;-77
2022/11/26 06:05:07;;;;;;;12.82;5.45;;;5.90;82.10;;;;;;4995467;28;20488;-77
2022/11/26 06:07:33;;;;;;;14.23;6.75;;;5.90;82.10;;;;;;4993725;28;20050;-77
2022/11/26 06:09:59;;;;;;;10.65;5.88;;;5.90;82.20;;;;;;4996777;28;20440;-77
2022/11/26 06:12:24;;;;;;;13.23;6.65;;;5.90;82.20;;;;;;5010935;28;20069;-77
2022/11/26 06:14:50;;;;;;;15.73;6.65;;;5.90;82.20;;;;;;4980363;28;20038;-77
2022/11/26 06:17:16;;;;;;;19.05;7.95;;;5.90;82.20;;;;;;4980409;28;21703;-78
2022/11/26 06:19:41;;;;;;;14.20;7.07;;;5.90;82.10;;;;;;4996841;28;20070;-77
2022/11/26 06:22:07;;;;;;;10.35;6.70;;;5.90;82.10;;;;;;4963165;28;20065;-77
2022/11/26 06:24:33;;;;;;;17.70;7.35;;;5.90;82.10;;;;;;4985885;28;20378;-77
2022/11/26 06:26:59;;;;;;;13.75;6.70;;;5.90;82.10;;;;;;4999842;28;20031;-77
2022/11/26 06:29:25;;;;;;;12.95;5.95;;;5.80;82.00;;;;;;4997361;28;20487;-77
2022/11/26 06:31:50;;;;;;;15.88;7.82;;;5.90;82.10;;;;;;5009878;28;20038;-77
2022/11/26 06:34:16;;;;;;;11.10;6.40;;;5.80;82.10;;;;;;4997918;28;20133;-77
2022/11/26 06:36:42;;;;;;;14.90;6.85;;;5.90;82.20;;;;;;4970968;28;20501;-77
2022/11/26 06:39:09;;;;;;;13.85;7.72;;;5.80;82.20;;;;;;4993338;28;20125;-77
2022/11/26 06:41:35;;;;;;;16.42;7.82;;;5.80;82.20;;;;;;4999679;28;20046;-77
2022/11/26 06:44:01;;;;;;;13.35;6.82;;;5.80;82.20;;;;;;4998768;28;20038;-77
2022/11/26 06:46:27;;;;;;;15.40;7.38;;;5.80;82.30;;;;;;5004609;28;20034;-77
2022/11/26 06:48:53;;;;;;;11.25;6.35;;;5.80;82.20;;;;;;5005644;28;20038;-77
2022/11/26 06:51:20;;;;;;;14.20;7.63;;;5.80;82.20;;;;;;4981284;28;20038;-77
2022/11/26 06:53:47;;;;;;;14.35;7.53;;;5.80;82.20;;;;;;5003083;28;20046;-77
2022/11/26 06:56:14;;;;;;;16.70;7.13;;;5.80;82.30;;;;;;4997001;28;20049;-78
2022/11/26 06:58:40;;;;;;;19.25;8.70;;;5.80;82.30;;;;;;4984467;28;20046;-78
2022/11/26 07:01:11;;;;;;;15.02;7.57;;;5.80;82.30;;;;;;5005075;28;20074;-78
2022/11/26 07:03:37;;;;;;;16.83;8.40;;;5.80;82.40;;;;;;4986773;28;20057;-78
2022/11/26 07:06:03;;;;;;;14.25;8.23;;;5.80;82.30;;;;;;5010468;28;20057;-78
2022/11/26 07:08:29;;;;;;;14.93;8.02;;;5.80;82.30;;;;;;4979317;28;20494;-78
2022/11/26 07:10:55;;;;;;;15.77;7.18;;;5.90;82.40;;;;;;4994174;28;20078;-78
2022/11/26 07:13:21;;;;;;;14.90;7.55;;;5.80;82.40;;;;;;4997978;28;20066;-78
2022/11/26 07:15:46;;;;;;;16.55;7.15;;;5.80;82.50;;;;;;5001566;28;20065;-78
2022/11/26 07:18:12;;;;;;;18.02;8.45;;;5.80;82.50;;;;;;4986254;28;20061;-78
2022/11/26 07:20:38;;;;;;;18.42;8.63;;;5.80;82.60;;;;;;4991854;28;20064;-78
2022/11/26 07:23:03;;;;;;;16.60;7.55;;;5.80;82.60;;;;;;5000997;28;20053;-77
2022/11/26 07:25:29;;;;;;;18.75;9.00;;;5.80;82.70;;;;;;4991972;28;20042;-77
2022/11/26 07:27:56;;;;;;;14.32;7.85;;;5.80;82.80;;;;;;5006517;28;20038;-77
2022/11/26 07:30:22;;;;;;;19.98;8.27;;;5.80;82.90;;;;;;4996441;28;20512;-77
2022/11/26 07:32:47;;;;;;;18.73;8.50;;;5.80;83.00;;;;;;4982917;28;20038;-76
2022/11/26 07:35:13;;;;;;;22.35;8.57;;;5.80;83.00;;;;;;4997954;28;20113;-77
2022/11/26 07:37:38;;;;;;;17.42;8.73;;;5.80;83.20;;;;;;4998948;28;20042;-77
2022/11/26 07:40:05;;;;;;;21.50;9.38;;;5.80;83.20;;;;;;4981580;28;20134;-77
2022/11/26 07:42:32;;;;;;;20.67;10.02;;;5.90;83.30;;;;;;5007976;28;20454;-77
2022/11/26 07:44:58;;;;;;;19.58;9.25;;;5.90;83.50;;;;;;5011349;28;20453;-76
2022/11/26 07:47:24;;;;;;;20.58;9.07;;;5.90;83.50;;;;;;4997708;28;20038;-76
2022/11/26 07:49:50;;;;;;;25.60;9.35;;;5.90;83.70;;;;;;5002694;28;20557;-77
2022/11/26 07:52:15;;;;;;;20.95;10.00;;;5.90;83.70;;;;;;4994863;28;20134;-76
2022/11/26 07:54:41;;;;;;;21.95;9.27;;;5.90;83.80;;;;;;4980833;28;20595;-80
2022/11/26 07:57:07;;;;;;;27.63;9.63;;;5.90;83.90;;;;;;5000653;28;20041;-77
2022/11/26 07:59:33;;;;;;;23.60;9.52;;;6.00;84.10;;;;;;5002730;28;20457;-76
2022/11/26 08:01:58;;;;;;;24.98;10.27;;;5.90;84.10;;;;;;4988059;28;20041;-76
2022/11/26 08:04:24;;;;;;;24.60;10.30;;;6.00;84.20;;;;;;4984827;28;20046;-76
2022/11/26 08:06:50;;;;;;;17.20;8.80;;;6.00;84.30;;;;;;4993579;28;20112;-76
2022/11/26 08:09:16;;;;;;;21.88;9.48;;;6.00;84.40;;;;;;4978941;28;20129;-77
2022/11/26 08:11:41;;;;;;;24.55;10.32;;;6.00;84.50;;;;;;5005897;28;20450;-77
2022/11/26 08:14:11;;;;;;;21.33;9.38;;;6.10;84.60;;;;;;4982309;28;20069;-76
2022/11/26 08:16:37;;;;;;;21.67;9.57;;;6.10;84.80;;;;;;5004195;28;20081;-76
2022/11/26 08:19:10;;;;;;;25.15;10.57;;;6.10;84.80;;;;;;5008460;28;20038;-76
2022/11/26 08:21:37;;;;;;;23.55;9.95;;;6.20;85.00;;;;;;5008734;28;20041;-76
2022/11/26 08:24:03;;;;;;;17.20;9.30;;;6.20;85.00;;;;;;4991150;28;20058;-76
2022/11/26 08:26:29;;;;;;;23.65;11.38;;;6.20;85.10;;;;;;4985730;28;20073;-77
2022/11/26 08:28:55;;;;;;;31.08;11.07;;;6.20;85.20;;;;;;5005986;28;20069;-77
2022/11/26 08:31:23;;;;;;;23.80;10.38;;;6.30;85.30;;;;;;5000051;28;20077;-76
2022/11/26 08:33:49;;;;;;;28.05;10.45;;;6.30;85.40;;;;;;4995024;28;20049;-77
2022/11/26 08:36:15;;;;;;;23.58;11.15;;;6.30;85.40;;;;;;5002064;28;20480;-76
2022/11/26 08:38:41;;;;;;;24.33;10.00;;;6.40;85.60;;;;;;4998015;28;20375;-77
2022/11/26 08:41:12;;;;;;;23.02;11.07;;;6.40;85.60;;;;;;4985648;28;20049;-76
2022/11/26 08:43:39;;;;;;;22.40;9.27;;;6.50;85.80;;;;;;4988951;28;20049;-76
2022/11/26 08:46:05;;;;;;;23.27;11.23;;;6.50;85.80;;;;;;5002951;28;20045;-77
2022/11/26 08:48:31;;;;;;;31.67;11.20;;;6.50;85.90;;;;;;4991738;28;20030;-76
2022/11/26 08:51:00;;;;;;;24.80;11.57;;;6.60;86.00;;;;;;4985739;28;20034;-76
2022/11/26 08:53:27;;;;;;;23.58;11.05;;;6.60;86.40;;;;;;5009288;28;20104;-77
2022/11/26 08:55:57;;;;;;;29.95;10.77;;;6.70;86.10;;;;;;5000527;28;20052;-77
2022/11/26 08:58:23;;;;;;;25.55;12.18;;;6.70;86.20;;;;;;5007780;28;20038;-77
2022/11/26 09:00:48;;;;;;;27.50;11.35;;;6.70;86.20;;;;;;4977783;28;20049;-77
2022/11/26 09:03:14;;;;;;;28.55;11.98;;;6.80;86.30;;;;;;5003525;28;20042;-77
2022/11/26 09:05:40;;;;;;;25.13;10.98;;;6.90;86.40;;;;;;4990251;28;20073;-75
2022/11/26 09:08:05;;;;;;;23.52;10.85;;;6.90;86.40;;;;;;4996606;28;20053;-75
2022/11/26 09:10:31;;;;;;;27.10;11.57;;;6.90;86.40;;;;;;5008099;28;20041;-76
2022/11/26 09:12:57;;;;;;;24.85;11.10;;;7.00;86.40;;;;;;5013590;28;20037;-76
2022/11/26 09:15:22;;;;;;;23.52;10.90;;;7.00;86.40;;;;;;4982042;28;20033;-77
2022/11/26 09:17:48;;;;;;;27.35;10.75;;;7.10;86.50;;;;;;4998864;28;20124;-76
2022/11/26 09:20:14;;;;;;;30.45;10.90;;;7.10;86.40;;;;;;5005189;28;20052;-75
2022/11/26 09:22:40;;;;;;;29.00;11.25;;;7.20;86.50;;;;;;5007979;28;20511;-75
2022/11/26 09:25:06;;;;;;;26.30;11.80;;;7.20;86.40;;;;;;5005244;28;20087;-76
2022/11/26 09:27:31;;;;;;;28.75;10.98;;;7.20;86.40;;;;;;4968238;28;20503;-76
2022/11/26 09:29:57;;;;;;;27.25;11.55;;;7.30;86.40;;;;;;5010634;28;20311;-76
2022/11/26 09:32:23;;;;;;;25.65;11.20;;;7.40;86.40;;;;;;4983390;28;20542;-76
2022/11/26 09:34:48;;;;;;;25.73;11.35;;;7.40;86.30;;;;;;5004918;28;20124;-77
2022/11/26 09:37:14;;;;;;;27.65;13.13;;;7.40;86.30;;;;;;5009953;28;20075;-75
2022/11/26 09:39:40;;;;;;;27.20;12.95;;;7.50;86.40;;;;;;5001145;28;20085;-76
2022/11/26 09:42:10;;;;;;;29.42;12.15;;;7.50;86.40;;;;;;4987104;28;20048;-75
2022/11/26 09:45:10;;;;;;;21.70;11.55;;;7.60;86.50;;;;;;4999533;28;20520;-76
2022/11/26 09:47:42;;;;;;;22.95;11.27;;;7.60;86.50;;;;;;5016659;28;20510;-76
2022/11/26 09:50:13;;;;;;;25.35;11.95;;;7.70;86.40;;;;;;5001056;28;20060;-77
2022/11/26 09:52:49;;;;;;;27.75;13.20;;;7.70;86.40;;;;;;4996589;28;20454;-76
2022/11/26 09:55:37;;;;;;;25.67;10.88;;;7.80;86.30;;;;;;4996315;28;20049;-76
2022/11/26 09:58:09;;;;;;;25.63;11.63;;;7.90;86.40;;;;;;4996867;28;20125;-76
2022/11/26 10:00:41;;;;;;;27.05;10.93;;;7.90;86.20;;;;;;4996320;28;20132;-76
2022/11/26 10:03:16;;;;;;;29.20;10.93;;;7.90;86.10;;;;;;5001869;28;20037;-76
2022/11/26 10:06:06;;;;;;;23.00;11.00;;;7.90;85.90;;;;;;4996366;28;20038;-76
2022/11/26 10:08:46;;;;;;;25.08;10.90;;;8.00;85.80;;;;;;5012484;28;20088;-76
2022/11/26 10:11:40;;;;;;;23.08;11.07;;;8.00;85.60;;;;;;4976460;28;20042;-69
2022/11/26 10:14:36;;;;;;;22.60;10.50;;;8.00;85.50;;;;;;4999299;28;20515;-71
2022/11/26 10:17:35;;;;;;;20.30;11.00;;;8.00;85.40;;;;;;5003426;28;20412;-70
2022/11/26 10:20:21;;;;;;;20.27;10.68;;;8.10;85.40;;;;;;4987921;28;20513;-69
2022/11/26 10:23:02;;;;;;;21.92;11.32;;;8.10;85.30;;;;;;4996603;28;20129;-70
2022/11/26 10:25:32;;;;;;;22.52;10.23;;;8.20;85.40;;;;;;4979010;28;20038;-77
2022/11/26 10:27:58;;;;;;;23.27;10.80;;;8.10;85.10;;;;;;5010969;28;20083;-76
2022/11/26 10:30:27;;;;;;;26.02;11.52;;;8.20;85.10;;;;;;5015659;28;20060;-76
2022/11/26 10:32:55;;;;;;;26.85;11.95;;;8.20;85.10;;;;;;4987021;28;20060;-77
2022/11/26 10:35:24;;;;;;;26.15;10.63;;;8.20;85.00;;;;;;5015360;28;20045;-77
2022/11/26 10:37:50;;;;;;;24.10;10.88;;;8.30;85.00;;;;;;5015311;28;20052;-75
2022/11/26 10:40:27;;;;;;;20.40;11.00;;;8.30;85.00;;;;;;5015637;28;20392;-75
2022/11/26 10:43:07;;;;;;;26.25;12.75;;;8.30;85.00;;;;;;4998313;28;20612;-77
2022/11/26 10:45:55;;;;;;;28.15;12.95;;;8.40;85.00;;;;;;4995944;28;20099;-76
2022/11/26 10:48:31;;;;;;;32.38;12.90;;;8.40;84.90;;;;;;4979622;28;20038;-75
2022/11/26 10:51:18;;;;;;;22.70;12.30;;;8.40;84.90;;;;;;4979607;28;20448;-75
2022/11/26 10:54:03;;;;;;;25.65;11.77;;;8.40;84.80;;;;;;4995779;28;20069;-75
2022/11/26 10:56:40;;;;;;;25.60;13.52;;;8.50;84.90;;;;;;4982328;28;20037;-78
2022/11/26 10:59:53;;;;;;;26.25;11.43;;;8.50;84.80;;;;;;4995405;28;20042;-78
2022/11/26 11:02:18;;;;;;;19.25;11.13;;;8.50;84.80;;;;;;4902707;29;20479;-76
2022/11/26 11:04:48;;;;;;;26.35;12.00;;;8.50;84.80;;;;;;4963144;28;20078;-76
2022/11/26 11:07:32;;;;;;;27.00;11.77;;;8.50;84.80;;;;;;4998823;28;20081;-77
2022/11/26 11:10:03;;;;;;;25.67;12.63;;;8.60;84.90;;;;;;5005363;28;20049;-77
2022/11/26 11:12:29;;;;;;;27.55;12.30;;;8.60;85.30;;;;;;4999248;28;20045;-77
2022/11/26 11:14:54;;;;;;;24.70;12.13;;;8.60;84.80;;;;;;4999530;28;20042;-76
2022/11/26 11:17:33;;;;;;;25.35;12.68;;;8.60;84.80;;;;;;5005893;28;20037;-76
2022/11/26 11:20:14;;;;;;;31.90;11.80;;;8.70;85.00;;;;;;4988441;28;20045;-76
2022/11/26 11:22:40;;;;;;;23.85;12.27;;;8.70;85.00;;;;;;5006335;28;20073;-77
2022/11/26 11:25:30;;;;;;;22.35;12.13;;;8.70;84.90;;;;;;4990840;28;20053;-77
2022/11/26 11:28:21;;;;;;;26.33;12.60;;;8.80;85.00;;;;;;5005701;28;20042;-78
2022/11/26 11:31:01;;;;;;;24.13;11.57;;;8.80;85.10;;;;;;4998270;28;20053;-77
2022/11/26 11:33:28;;;;;;;30.85;13.70;;;8.80;85.10;;;;;;4983388;28;20077;-77
2022/11/26 11:36:03;;;;;;;24.02;11.93;;;8.80;85.00;;;;;;4999448;28;20484;-77
2022/11/26 11:38:33;;;;;;;26.13;12.63;;;8.90;85.00;;;;;;5001764;28;20053;-77
2022/11/26 11:41:03;;;;;;;22.30;11.15;;;8.90;85.00;;;;;;4999031;28;20123;-77
2022/11/26 11:43:34;;;;;;;25.45;11.07;;;9.00;85.00;;;;;;5010657;28;20076;-77
2022/11/26 11:46:00;;;;;;;27.33;10.48;;;9.00;85.00;;;;;;5002430;28;20038;-78
2022/11/26 11:48:45;;;;;;;22.15;11.73;;;9.00;84.90;;;;;;5002979;28;20107;-77
2022/11/26 11:51:11;;;;;;;24.65;12.65;;;9.00;84.90;;;;;;5018345;28;20068;-77
2022/11/26 11:53:43;;;;;;;24.60;12.52;;;9.10;84.80;;;;;;5018440;28;20510;-78
2022/11/26 11:56:27;;;;;;;24.42;11.35;;;9.10;84.70;;;;;;4995114;28;20041;-78
2022/11/26 11:59:10;;;;;;;30.73;13.60;;;9.10;84.70;;;;;;4988573;28;20040;-78
2022/11/26 12:02:07;;;;;;;20.52;11.00;;;9.20;84.80;;;;;;4997276;28;20056;-78
2022/11/26 12:04:39;;;;;;;28.35;12.48;;;9.20;84.70;;;;;;5000478;28;20227;-78
2022/11/26 12:07:32;;;;;;;21.98;11.70;;;9.20;84.70;;;;;;5017447;28;20050;-78
2022/11/26 12:10:20;;;;;;;30.52;13.07;;;9.20;84.60;;;;;;4999773;28;20463;-81
2022/11/26 12:12:51;;;;;;;26.27;11.80;;;9.30;84.70;;;;;;4981710;28;20073;-81
2022/11/26 12:15:34;;;;;;;31.55;13.50;;;9.30;84.60;;;;;;4998242;28;20084;-81
2022/11/26 12:18:17;;;;;;;23.92;11.70;;;9.30;84.60;;;;;;4998284;28;20049;-82
2022/11/26 12:20:48;;;;;;;26.05;11.23;;;9.30;84.60;;;;;;5010268;28;20042;-81
2022/11/26 12:23:32;;;;;;;32.00;12.98;;;9.40;84.60;;;;;;5006276;28;20038;-82
2022/11/26 12:26:05;;;;;;;32.85;12.80;;;9.40;84.60;;;;;;5013082;28;20056;-82
2022/11/26 12:28:51;;;;;;;24.75;11.15;;;9.40;84.60;;;;;;5001447;28;20072;-81
2022/11/26 12:31:44;;;;;;;23.90;10.68;;;9.40;84.60;;;;;;4982861;28;20041;-81
2022/11/26 12:34:22;;;;;;;21.02;10.40;;;9.50;84.70;;;;;;4988358;28;20045;-82
2022/11/26 12:36:56;;;;;;;25.80;11.50;;;9.50;84.70;;;;;;4978819;28;20064;-82
2022/11/26 12:39:27;;;;;;;24.08;12.15;;;9.60;84.80;;;;;;4991171;28;20077;-81
2022/11/26 12:42:15;;;;;;;22.05;10.98;;;9.60;84.70;;;;;;4999368;28;20488;-81
2022/11/26 12:44:47;;;;;;;19.60;11.05;;;9.60;84.60;;;;;;4997700;28;20053;-80
2022/11/26 12:47:31;;;;;;;20.15;9.95;;;9.60;84.50;;;;;;4981842;28;20046;-80
2022/11/26 12:50:15;;;;;;;24.63;10.77;;;9.60;84.40;;;;;;4981668;28;20189;-79
2022/11/26 12:52:49;;;;;;;26.57;10.53;;;9.70;84.40;;;;;;4998039;28;20077;-79
2022/11/26 12:55:27;;;;;;;24.10;11.25;;;9.70;84.30;;;;;;4994468;28;20101;-78
2022/11/26 12:58:12;;;;;;;24.10;11.82;;;9.70;84.30;;;;;;4978152;28;20035;-79
2022/11/26 13:00:37;;;;;;;23.88;11.02;;;9.70;84.30;;;;;;4978311;28;20050;-81
2022/11/26 13:03:14;;;;;;;21.00;10.60;;;9.70;84.20;;;;;;4978232;28;20507;-80
2022/11/26 13:06:05;;;;;;;24.05;10.75;;;9.80;84.40;;;;;;4962283;28;20034;-82